sensor_id;sensor_type;location;lat;lon;timestamp;P1;durP1;ratioP1;P2;durP2;ratioP2
24485;SDS011;13449;49.374;8.584;2023-04-06T00:01:41;13.25;;;5.78;;
24485;SDS011;13449;49.374;8.584;2023-04-06T00:04:07;10.10;;;5.80;;
24485;SDS011;13449;49.374;8.584;2023-04-06T00:06:34;18.23;;;6.00;;
24485;SDS011;13449;49.374;8.584;2023-04-06T00:09:03;10.23;;;5.05;;
24485;SDS011;13449;49.374;8.584;2023-04-06T00:11:29;8.95;;;5.43;;
24485;SDS011;13449;49.374;8.584;2023-04-06T00:13:58;11.57;;;5.15;;
24485;SDS011;13449;49.374;8.584;2023-04-06T00:16:27;11.70;;;5.38;;
24485;SDS011;13449;49.374;8.584;2023-04-06T00:19:04;12.00;;;4.97;;
24485;SDS011;13449;49.374;8.584;2023-04-06T00:21:30;6.53;;;4.05;;
24485;SDS011;13449;49.374;8.584;2023-04-06T00:23:58;6.85;;;4.15;;
24485;SDS011;13449;49.374;8.584;2023-04-06T00:26:27;7.28;;;3.88;;
24485;SDS011;13449;49.374;8.584;2023-04-06T00:28:53;14.27;;;4.55;;
24485;SDS011;13449;49.374;8.584;2023-04-06T00:31:20;10.70;;;4.82;;
24485;SDS011;13449;49.374;8.584;2023-04-06T00:33:47;12.48;;;4.60;;
24485;SDS011;13449;49.374;8.584;2023-04-06T00:36:14;9.75;;;4.20;;
24485;SDS011;13449;49.374;8.584;2023-04-06T00:38:40;8.32;;;4.50;;
24485;SDS011;13449;49.374;8.584;2023-04-06T00:41:07;9.63;;;3.85;;
24485;SDS011;13449;49.374;8.584;2023-04-06T00:43:33;5.63;;;3.92;;
24485;SDS011;13449;49.374;8.584;2023-04-06T00:46:00;7.43;;;3.85;;
24485;SDS011;13449;49.374;8.584;2023-04-06T00:48:26;11.55;;;4.47;;
24485;SDS011;13449;49.374;8.584;2023-04-06T00:50:55;7.15;;;3.78;;
24485;SDS011;13449;49.374;8.584;2023-04-06T00:53:23;9.50;;;4.57;;
24485;SDS011;13449;49.374;8.584;2023-04-06T00:55:51;7.47;;;3.97;;
24485;SDS011;13449;49.374;8.584;2023-04-06T00:58:18;6.80;;;4.07;;
24485;SDS011;13449;49.374;8.584;2023-04-06T01:00:45;11.00;;;4.40;;
24485;SDS011;13449;49.374;8.584;2023-04-06T01:03:14;11.25;;;3.95;;
24485;SDS011;13449;49.374;8.584;2023-04-06T01:05:40;6.57;;;3.60;;
24485;SDS011;13449;49.374;8.584;2023-04-06T01:08:08;8.52;;;4.07;;
24485;SDS011;13449;49.374;8.584;2023-04-06T01:10:35;7.40;;;4.05;;
24485;SDS011;13449;49.374;8.584;2023-04-06T01:13:01;15.05;;;3.78;;
24485;SDS011;13449;49.374;8.584;2023-04-06T01:15:28;5.78;;;3.38;;
24485;SDS011;13449;49.374;8.584;2023-04-06T01:17:56;6.70;;;3.53;;
24485;SDS011;13449;49.374;8.584;2023-04-06T01:20:22;6.72;;;3.38;;
24485;SDS011;13449;49.374;8.584;2023-04-06T01:22:49;8.00;;;4.38;;
24485;SDS011;13449;49.374;8.584;2023-04-06T01:25:15;10.88;;;3.45;;
24485;SDS011;13449;49.374;8.584;2023-04-06T01:27:42;6.75;;;4.03;;
24485;SDS011;13449;49.374;8.584;2023-04-06T01:30:11;7.32;;;4.25;;
24485;SDS011;13449;49.374;8.584;2023-04-06T01:32:38;6.47;;;4.00;;
24485;SDS011;13449;49.374;8.584;2023-04-06T01:35:05;13.18;;;3.88;;
24485;SDS011;13449;49.374;8.584;2023-04-06T01:37:31;8.35;;;3.78;;
24485;SDS011;13449;49.374;8.584;2023-04-06T01:39:59;8.43;;;3.83;;
24485;SDS011;13449;49.374;8.584;2023-04-06T01:42:28;6.53;;;3.55;;
24485;SDS011;13449;49.374;8.584;2023-04-06T01:44:56;7.13;;;4.15;;
24485;SDS011;13449;49.374;8.584;2023-04-06T01:47:23;5.75;;;3.47;;
24485;SDS011;13449;49.374;8.584;2023-04-06T01:49:49;7.60;;;3.97;;
24485;SDS011;13449;49.374;8.584;2023-04-06T01:52:16;10.00;;;3.90;;
24485;SDS011;13449;49.374;8.584;2023-04-06T01:54:42;12.60;;;5.05;;
24485;SDS011;13449;49.374;8.584;2023-04-06T01:57:10;6.38;;;4.00;;
24485;SDS011;13449;49.374;8.584;2023-04-06T01:59:37;5.90;;;4.05;;
24485;SDS011;13449;49.374;8.584;2023-04-06T02:02:03;6.90;;;3.85;;
24485;SDS011;13449;49.374;8.584;2023-04-06T02:04:32;11.05;;;4.63;;
24485;SDS011;13449;49.374;8.584;2023-04-06T02:06:59;8.45;;;4.93;;
24485;SDS011;13449;49.374;8.584;2023-04-06T02:09:25;6.07;;;4.38;;
24485;SDS011;13449;49.374;8.584;2023-04-06T02:11:54;7.05;;;4.30;;
24485;SDS011;13449;49.374;8.584;2023-04-06T02:14:24;12.48;;;4.25;;
24485;SDS011;13449;49.374;8.584;2023-04-06T02:16:51;8.43;;;3.40;;
24485;SDS011;13449;49.374;8.584;2023-04-06T02:19:18;9.57;;;3.72;;
24485;SDS011;13449;49.374;8.584;2023-04-06T02:21:44;7.70;;;3.95;;
24485;SDS011;13449;49.374;8.584;2023-04-06T02:24:11;6.93;;;4.68;;
24485;SDS011;13449;49.374;8.584;2023-04-06T02:26:38;8.45;;;4.40;;
24485;SDS011;13449;49.374;8.584;2023-04-06T02:29:04;22.10;;;7.55;;
24485;SDS011;13449;49.374;8.584;2023-04-06T02:31:32;18.40;;;7.88;;
24485;SDS011;13449;49.374;8.584;2023-04-06T02:34:01;12.73;;;5.88;;
24485;SDS011;13449;49.374;8.584;2023-04-06T02:36:30;7.57;;;4.07;;
24485;SDS011;13449;49.374;8.584;2023-04-06T02:38:59;7.30;;;4.03;;
24485;SDS011;13449;49.374;8.584;2023-04-06T02:41:28;7.53;;;3.65;;
24485;SDS011;13449;49.374;8.584;2023-04-06T02:43:54;4.82;;;3.75;;
24485;SDS011;13449;49.374;8.584;2023-04-06T02:46:21;11.02;;;4.65;;
24485;SDS011;13449;49.374;8.584;2023-04-06T02:48:48;7.40;;;3.78;;
24485;SDS011;13449;49.374;8.584;2023-04-06T02:51:14;7.00;;;4.13;;
24485;SDS011;13449;49.374;8.584;2023-04-06T02:53:43;6.88;;;3.78;;
24485;SDS011;13449;49.374;8.584;2023-04-06T02:56:09;6.45;;;4.03;;
24485;SDS011;13449;49.374;8.584;2023-04-06T02:58:36;7.10;;;3.88;;
24485;SDS011;13449;49.374;8.584;2023-04-06T03:01:03;7.85;;;4.00;;
24485;SDS011;13449;49.374;8.584;2023-04-06T03:03:30;7.72;;;4.15;;
24485;SDS011;13449;49.374;8.584;2023-04-06T03:05:56;8.60;;;3.90;;
24485;SDS011;13449;49.374;8.584;2023-04-06T03:08:24;13.85;;;4.15;;
24485;SDS011;13449;49.374;8.584;2023-04-06T03:10:51;6.15;;;3.65;;
24485;SDS011;13449;49.374;8.584;2023-04-06T03:13:17;8.00;;;4.38;;
24485;SDS011;13449;49.374;8.584;2023-04-06T03:15:44;9.63;;;4.50;;
24485;SDS011;13449;49.374;8.584;2023-04-06T03:18:10;5.72;;;3.90;;
24485;SDS011;13449;49.374;8.584;2023-04-06T03:20:37;10.00;;;4.88;;
24485;SDS011;13449;49.374;8.584;2023-04-06T03:23:03;9.68;;;4.35;;
24485;SDS011;13449;49.374;8.584;2023-04-06T03:25:30;10.52;;;4.15;;
24485;SDS011;13449;49.374;8.584;2023-04-06T03:27:56;9.75;;;5.45;;
24485;SDS011;13449;49.374;8.584;2023-04-06T03:30:25;7.72;;;4.10;;
24485;SDS011;13449;49.374;8.584;2023-04-06T03:32:52;9.00;;;4.38;;
24485;SDS011;13449;49.374;8.584;2023-04-06T03:35:21;6.72;;;3.92;;
24485;SDS011;13449;49.374;8.584;2023-04-06T03:37:47;9.80;;;4.03;;
24485;SDS011;13449;49.374;8.584;2023-04-06T03:40:14;11.88;;;5.03;;
24485;SDS011;13449;49.374;8.584;2023-04-06T03:42:40;14.43;;;5.38;;
24485;SDS011;13449;49.374;8.584;2023-04-06T03:45:10;10.77;;;6.05;;
24485;SDS011;13449;49.374;8.584;2023-04-06T03:47:40;9.80;;;6.03;;
24485;SDS011;13449;49.374;8.584;2023-04-06T03:50:09;7.22;;;4.75;;
24485;SDS011;13449;49.374;8.584;2023-04-06T03:52:36;7.82;;;4.95;;
24485;SDS011;13449;49.374;8.584;2023-04-06T03:55:02;8.93;;;3.95;;
24485;SDS011;13449;49.374;8.584;2023-04-06T03:57:29;10.52;;;4.65;;
24485;SDS011;13449;49.374;8.584;2023-04-06T03:59:55;8.65;;;4.35;;
24485;SDS011;13449;49.374;8.584;2023-04-06T04:02:22;7.13;;;4.35;;
24485;SDS011;13449;49.374;8.584;2023-04-06T04:04:48;6.90;;;4.03;;
24485;SDS011;13449;49.374;8.584;2023-04-06T04:07:15;9.30;;;4.65;;
24485;SDS011;13449;49.374;8.584;2023-04-06T04:09:41;13.20;;;4.65;;
24485;SDS011;13449;49.374;8.584;2023-04-06T04:12:10;7.07;;;3.83;;
24485;SDS011;13449;49.374;8.584;2023-04-06T04:14:37;8.40;;;4.45;;
24485;SDS011;13449;49.374;8.584;2023-04-06T04:17:06;10.13;;;5.18;;
24485;SDS011;13449;49.374;8.584;2023-04-06T04:19:33;6.55;;;4.40;;
24485;SDS011;13449;49.374;8.584;2023-04-06T04:21:59;9.13;;;4.80;;
24485;SDS011;13449;49.374;8.584;2023-04-06T04:24:26;11.15;;;4.63;;
24485;SDS011;13449;49.374;8.584;2023-04-06T04:26:52;9.57;;;3.92;;
24485;SDS011;13449;49.374;8.584;2023-04-06T04:29:19;7.97;;;4.30;;
24485;SDS011;13449;49.374;8.584;2023-04-06T04:31:47;10.13;;;4.55;;
24485;SDS011;13449;49.374;8.584;2023-04-06T04:34:14;9.40;;;4.35;;
24485;SDS011;13449;49.374;8.584;2023-04-06T04:36:41;8.18;;;4.45;;
24485;SDS011;13449;49.374;8.584;2023-04-06T04:39:10;9.80;;;4.78;;
24485;SDS011;13449;49.374;8.584;2023-04-06T04:41:37;10.02;;;4.63;;
24485;SDS011;13449;49.374;8.584;2023-04-06T04:44:03;7.40;;;4.60;;
24485;SDS011;13449;49.374;8.584;2023-04-06T04:46:33;10.63;;;4.68;;
24485;SDS011;13449;49.374;8.584;2023-04-06T04:49:02;8.40;;;4.75;;
24485;SDS011;13449;49.374;8.584;2023-04-06T04:51:31;7.40;;;4.32;;
24485;SDS011;13449;49.374;8.584;2023-04-06T04:53:58;9.43;;;4.82;;
24485;SDS011;13449;49.374;8.584;2023-04-06T04:56:25;11.05;;;5.30;;
24485;SDS011;13449;49.374;8.584;2023-04-06T04:58:53;9.23;;;4.40;;
24485;SDS011;13449;49.374;8.584;2023-04-06T05:01:20;9.02;;;4.43;;
24485;SDS011;13449;49.374;8.584;2023-04-06T05:03:46;12.68;;;5.70;;
24485;SDS011;13449;49.374;8.584;2023-04-06T05:06:16;13.68;;;5.63;;
24485;SDS011;13449;49.374;8.584;2023-04-06T05:08:42;12.57;;;5.10;;
24485;SDS011;13449;49.374;8.584;2023-04-06T05:11:09;12.02;;;5.75;;
24485;SDS011;13449;49.374;8.584;2023-04-06T05:13:36;10.93;;;4.82;;
24485;SDS011;13449;49.374;8.584;2023-04-06T05:16:05;8.07;;;5.25;;
24485;SDS011;13449;49.374;8.584;2023-04-06T05:18:32;11.73;;;4.95;;
24485;SDS011;13449;49.374;8.584;2023-04-06T05:20:58;11.02;;;5.25;;
24485;SDS011;13449;49.374;8.584;2023-04-06T05:23:25;8.32;;;5.05;;
24485;SDS011;13449;49.374;8.584;2023-04-06T05:25:52;9.90;;;4.53;;
24485;SDS011;13449;49.374;8.584;2023-04-06T05:28:18;12.48;;;5.55;;
24485;SDS011;13449;49.374;8.584;2023-04-06T05:30:45;7.90;;;4.80;;
24485;SDS011;13449;49.374;8.584;2023-04-06T05:33:14;18.02;;;5.90;;
24485;SDS011;13449;49.374;8.584;2023-04-06T05:35:41;12.45;;;5.72;;
24485;SDS011;13449;49.374;8.584;2023-04-06T05:38:07;13.73;;;5.25;;
24485;SDS011;13449;49.374;8.584;2023-04-06T05:40:36;9.07;;;5.30;;
24485;SDS011;13449;49.374;8.584;2023-04-06T05:43:04;11.55;;;5.32;;
24485;SDS011;13449;49.374;8.584;2023-04-06T05:45:31;12.45;;;5.72;;
24485;SDS011;13449;49.374;8.584;2023-04-06T05:47:57;11.30;;;5.00;;
24485;SDS011;13449;49.374;8.584;2023-04-06T05:50:24;15.73;;;6.25;;
24485;SDS011;13449;49.374;8.584;2023-04-06T05:52:51;9.63;;;6.13;;
24485;SDS011;13449;49.374;8.584;2023-04-06T05:55:17;12.00;;;6.07;;
24485;SDS011;13449;49.374;8.584;2023-04-06T05:57:44;9.90;;;4.90;;
24485;SDS011;13449;49.374;8.584;2023-04-06T06:00:10;10.65;;;5.43;;
24485;SDS011;13449;49.374;8.584;2023-04-06T06:02:37;10.82;;;5.25;;
24485;SDS011;13449;49.374;8.584;2023-04-06T06:05:08;7.53;;;5.28;;
24485;SDS011;13449;49.374;8.584;2023-04-06T06:07:36;9.02;;;4.95;;
24485;SDS011;13449;49.374;8.584;2023-04-06T06:10:03;8.27;;;4.75;;
24485;SDS011;13449;49.374;8.584;2023-04-06T06:12:29;11.25;;;5.25;;
24485;SDS011;13449;49.374;8.584;2023-04-06T06:14:56;11.32;;;5.57;;
24485;SDS011;13449;49.374;8.584;2023-04-06T06:17:23;11.32;;;6.20;;
24485;SDS011;13449;49.374;8.584;2023-04-06T06:19:49;7.97;;;5.18;;
24485;SDS011;13449;49.374;8.584;2023-04-06T06:22:16;9.13;;;5.20;;
24485;SDS011;13449;49.374;8.584;2023-04-06T06:24:42;9.68;;;5.80;;
24485;SDS011;13449;49.374;8.584;2023-04-06T06:27:09;10.05;;;5.93;;
24485;SDS011;13449;49.374;8.584;2023-04-06T06:29:36;12.68;;;6.05;;
24485;SDS011;13449;49.374;8.584;2023-04-06T06:32:02;11.23;;;5.70;;
24485;SDS011;13449;49.374;8.584;2023-04-06T06:34:29;8.38;;;5.13;;
24485;SDS011;13449;49.374;8.584;2023-04-06T06:36:56;12.73;;;6.95;;
24485;SDS011;13449;49.374;8.584;2023-04-06T06:39:22;9.73;;;5.30;;
24485;SDS011;13449;49.374;8.584;2023-04-06T06:41:49;12.05;;;6.18;;
24485;SDS011;13449;49.374;8.584;2023-04-06T06:44:16;10.68;;;5.30;;
24485;SDS011;13449;49.374;8.584;2023-04-06T06:46:42;11.98;;;5.10;;
24485;SDS011;13449;49.374;8.584;2023-04-06T06:49:14;14.02;;;6.53;;
24485;SDS011;13449;49.374;8.584;2023-04-06T06:51:41;15.95;;;5.63;;
24485;SDS011;13449;49.374;8.584;2023-04-06T06:54:07;14.32;;;5.45;;
24485;SDS011;13449;49.374;8.584;2023-04-06T06:56:34;11.55;;;5.38;;
24485;SDS011;13449;49.374;8.584;2023-04-06T06:59:04;10.23;;;5.93;;
24485;SDS011;13449;49.374;8.584;2023-04-06T07:01:33;11.15;;;5.30;;
24485;SDS011;13449;49.374;8.584;2023-04-06T07:04:01;11.32;;;5.93;;
24485;SDS011;13449;49.374;8.584;2023-04-06T07:06:28;14.23;;;6.13;;
24485;SDS011;13449;49.374;8.584;2023-04-06T07:08:54;11.77;;;5.93;;
24485;SDS011;13449;49.374;8.584;2023-04-06T07:11:24;9.40;;;5.57;;
24485;SDS011;13449;49.374;8.584;2023-04-06T07:13:50;24.20;;;7.35;;
24485;SDS011;13449;49.374;8.584;2023-04-06T07:16:17;9.77;;;5.95;;
24485;SDS011;13449;49.374;8.584;2023-04-06T07:18:43;10.13;;;5.65;;
24485;SDS011;13449;49.374;8.584;2023-04-06T07:21:10;19.88;;;5.07;;
24485;SDS011;13449;49.374;8.584;2023-04-06T07:23:36;9.65;;;5.28;;
24485;SDS011;13449;49.374;8.584;2023-04-06T07:26:03;8.85;;;5.15;;
24485;SDS011;13449;49.374;8.584;2023-04-06T07:28:29;7.82;;;4.93;;
24485;SDS011;13449;49.374;8.584;2023-04-06T07:30:56;11.25;;;4.55;;
24485;SDS011;13449;49.374;8.584;2023-04-06T07:33:22;11.65;;;4.80;;
24485;SDS011;13449;49.374;8.584;2023-04-06T07:35:51;10.60;;;5.30;;
24485;SDS011;13449;49.374;8.584;2023-04-06T07:38:18;7.15;;;4.80;;
24485;SDS011;13449;49.374;8.584;2023-04-06T07:40:45;7.78;;;5.25;;
24485;SDS011;13449;49.374;8.584;2023-04-06T07:43:11;7.60;;;4.85;;
24485;SDS011;13449;49.374;8.584;2023-04-06T07:45:40;9.50;;;5.18;;
24485;SDS011;13449;49.374;8.584;2023-04-06T07:48:06;16.45;;;5.53;;
24485;SDS011;13449;49.374;8.584;2023-04-06T07:50:33;13.43;;;5.28;;
24485;SDS011;13449;49.374;8.584;2023-04-06T07:53:00;9.15;;;5.20;;
24485;SDS011;13449;49.374;8.584;2023-04-06T07:55:27;6.10;;;4.28;;
24485;SDS011;13449;49.374;8.584;2023-04-06T07:57:53;7.80;;;4.88;;
24485;SDS011;13449;49.374;8.584;2023-04-06T08:00:20;8.75;;;5.38;;
24485;SDS011;13449;49.374;8.584;2023-04-06T08:02:46;7.35;;;4.88;;
24485;SDS011;13449;49.374;8.584;2023-04-06T08:05:13;6.38;;;4.68;;
24485;SDS011;13449;49.374;8.584;2023-04-06T08:07:40;8.30;;;5.07;;
24485;SDS011;13449;49.374;8.584;2023-04-06T08:10:07;7.82;;;5.07;;
24485;SDS011;13449;49.374;8.584;2023-04-06T08:12:34;5.70;;;4.28;;
24485;SDS011;13449;49.374;8.584;2023-04-06T08:15:01;15.98;;;5.47;;
24485;SDS011;13449;49.374;8.584;2023-04-06T08:17:31;9.38;;;4.63;;
24485;SDS011;13449;49.374;8.584;2023-04-06T08:19:58;8.20;;;5.63;;
24485;SDS011;13449;49.374;8.584;2023-04-06T08:22:27;7.15;;;4.88;;
24485;SDS011;13449;49.374;8.584;2023-04-06T08:24:56;10.75;;;5.50;;
24485;SDS011;13449;49.374;8.584;2023-04-06T08:27:22;11.68;;;4.85;;
24485;SDS011;13449;49.374;8.584;2023-04-06T08:29:49;7.35;;;4.13;;
24485;SDS011;13449;49.374;8.584;2023-04-06T08:32:17;13.32;;;5.90;;
24485;SDS011;13449;49.374;8.584;2023-04-06T08:34:43;8.57;;;4.97;;
24485;SDS011;13449;49.374;8.584;2023-04-06T08:37:13;5.05;;;4.45;;
24485;SDS011;13449;49.374;8.584;2023-04-06T08:39:39;9.35;;;5.35;;
24485;SDS011;13449;49.374;8.584;2023-04-06T08:42:10;11.25;;;5.57;;
24485;SDS011;13449;49.374;8.584;2023-04-06T08:44:44;12.80;;;5.05;;
24485;SDS011;13449;49.374;8.584;2023-04-06T08:47:12;13.25;;;5.35;;
24485;SDS011;13449;49.374;8.584;2023-04-06T08:49:39;9.52;;;4.57;;
24485;SDS011;13449;49.374;8.584;2023-04-06T08:52:10;9.75;;;4.70;;
24485;SDS011;13449;49.374;8.584;2023-04-06T08:54:37;15.15;;;4.55;;
24485;SDS011;13449;49.374;8.584;2023-04-06T08:57:06;6.03;;;3.80;;
24485;SDS011;13449;49.374;8.584;2023-04-06T08:59:36;5.28;;;4.35;;
24485;SDS011;13449;49.374;8.584;2023-04-06T09:02:05;7.63;;;4.75;;
24485;SDS011;13449;49.374;8.584;2023-04-06T09:04:36;6.57;;;4.90;;
24485;SDS011;13449;49.374;8.584;2023-04-06T09:07:03;11.05;;;4.38;;
24485;SDS011;13449;49.374;8.584;2023-04-06T09:09:30;5.90;;;3.85;;
24485;SDS011;13449;49.374;8.584;2023-04-06T09:11:58;12.82;;;4.22;;
24485;SDS011;13449;49.374;8.584;2023-04-06T09:17:07;12.07;;;4.35;;
24485;SDS011;13449;49.374;8.584;2023-04-06T09:19:33;4.93;;;3.97;;
24485;SDS011;13449;49.374;8.584;2023-04-06T09:22:03;7.65;;;4.43;;
24485;SDS011;13449;49.374;8.584;2023-04-06T09:24:44;8.23;;;3.95;;
24485;SDS011;13449;49.374;8.584;2023-04-06T09:27:12;8.35;;;4.55;;
24485;SDS011;13449;49.374;8.584;2023-04-06T09:29:40;5.18;;;4.03;;
24485;SDS011;13449;49.374;8.584;2023-04-06T09:32:07;7.28;;;4.43;;
24485;SDS011;13449;49.374;8.584;2023-04-06T09:34:38;16.10;;;4.03;;
24485;SDS011;13449;49.374;8.584;2023-04-06T09:37:12;9.75;;;4.25;;
24485;SDS011;13449;49.374;8.584;2023-04-06T09:39:47;8.82;;;4.43;;
24485;SDS011;13449;49.374;8.584;2023-04-06T09:42:26;12.27;;;4.70;;
24485;SDS011;13449;49.374;8.584;2023-04-06T09:44:52;3.97;;;3.47;;
24485;SDS011;13449;49.374;8.584;2023-04-06T09:47:19;5.97;;;4.25;;
24485;SDS011;13449;49.374;8.584;2023-04-06T09:49:46;5.82;;;3.92;;
24485;SDS011;13449;49.374;8.584;2023-04-06T09:52:15;9.35;;;4.07;;
24485;SDS011;13449;49.374;8.584;2023-04-06T09:54:44;10.43;;;4.35;;
24485;SDS011;13449;49.374;8.584;2023-04-06T09:57:25;9.70;;;4.05;;
24485;SDS011;13449;49.374;8.584;2023-04-06T10:05:50;9.68;;;4.07;;
24485;SDS011;13449;49.374;8.584;2023-04-06T10:08:21;5.55;;;3.20;;
24485;SDS011;13449;49.374;8.584;2023-04-06T10:10:51;5.82;;;3.63;;
24485;SDS011;13449;49.374;8.584;2023-04-06T10:13:18;8.65;;;3.28;;
24485;SDS011;13449;49.374;8.584;2023-04-06T10:15:45;6.20;;;3.28;;
24485;SDS011;13449;49.374;8.584;2023-04-06T10:18:14;8.30;;;3.80;;
24485;SDS011;13449;49.374;8.584;2023-04-06T10:28:41;5.28;;;4.20;;
24485;SDS011;13449;49.374;8.584;2023-04-06T10:31:08;9.93;;;4.22;;
24485;SDS011;13449;49.374;8.584;2023-04-06T10:33:34;5.28;;;3.60;;
24485;SDS011;13449;49.374;8.584;2023-04-06T10:36:11;8.93;;;3.78;;
24485;SDS011;13449;49.374;8.584;2023-04-06T10:38:38;4.40;;;2.90;;
24485;SDS011;13449;49.374;8.584;2023-04-06T10:41:11;7.00;;;3.50;;
24485;SDS011;13449;49.374;8.584;2023-04-06T10:43:41;5.78;;;3.22;;
24485;SDS011;13449;49.374;8.584;2023-04-06T10:46:08;6.22;;;3.33;;
24485;SDS011;13449;49.374;8.584;2023-04-06T10:48:36;7.35;;;3.35;;
24485;SDS011;13449;49.374;8.584;2023-04-06T10:51:26;6.53;;;3.30;;
24485;SDS011;13449;49.374;8.584;2023-04-06T10:54:14;13.10;;;3.47;;
24485;SDS011;13449;49.374;8.584;2023-04-06T10:57:00;8.38;;;3.10;;
24485;SDS011;13449;49.374;8.584;2023-04-06T10:59:46;6.43;;;2.80;;
24485;SDS011;13449;49.374;8.584;2023-04-06T11:02:31;4.75;;;2.78;;
24485;SDS011;13449;49.374;8.584;2023-04-06T11:05:16;6.25;;;2.95;;
24485;SDS011;13449;49.374;8.584;2023-04-06T11:08:01;5.97;;;3.20;;
24485;SDS011;13449;49.374;8.584;2023-04-06T11:10:49;7.35;;;3.20;;
24485;SDS011;13449;49.374;8.584;2023-04-06T11:13:38;7.63;;;3.28;;
24485;SDS011;13449;49.374;8.584;2023-04-06T11:16:26;7.15;;;3.42;;
24485;SDS011;13449;49.374;8.584;2023-04-06T11:19:15;6.38;;;3.22;;
24485;SDS011;13449;49.374;8.584;2023-04-06T11:22:06;3.88;;;2.80;;
24485;SDS011;13449;49.374;8.584;2023-04-06T11:24:52;4.90;;;3.28;;
24485;SDS011;13449;49.374;8.584;2023-04-06T11:27:38;9.75;;;4.65;;
24485;SDS011;13449;49.374;8.584;2023-04-06T11:30:23;7.82;;;4.35;;
24485;SDS011;13449;49.374;8.584;2023-04-06T11:33:08;6.57;;;4.20;;
24485;SDS011;13449;49.374;8.584;2023-04-06T11:35:56;6.75;;;4.18;;
24485;SDS011;13449;49.374;8.584;2023-04-06T11:38:42;6.40;;;4.70;;
24485;SDS011;13449;49.374;8.584;2023-04-06T11:41:27;6.25;;;4.00;;
24485;SDS011;13449;49.374;8.584;2023-04-06T11:44:15;7.95;;;4.60;;
24485;SDS011;13449;49.374;8.584;2023-04-06T11:47:04;8.27;;;4.60;;
24485;SDS011;13449;49.374;8.584;2023-04-06T11:49:51;5.70;;;4.25;;
24485;SDS011;13449;49.374;8.584;2023-04-06T11:52:27;9.45;;;5.40;;
24485;SDS011;13449;49.374;8.584;2023-04-06T11:54:54;9.73;;;5.45;;
24485;SDS011;13449;49.374;8.584;2023-04-06T11:57:22;9.82;;;5.80;;
24485;SDS011;13449;49.374;8.584;2023-04-06T11:59:52;12.05;;;5.63;;
24485;SDS011;13449;49.374;8.584;2023-04-06T12:02:19;8.73;;;6.55;;
24485;SDS011;13449;49.374;8.584;2023-04-06T12:04:45;9.57;;;5.72;;
24485;SDS011;13449;49.374;8.584;2023-04-06T12:07:15;9.05;;;5.53;;
24485;SDS011;13449;49.374;8.584;2023-04-06T12:09:42;10.52;;;5.63;;
24485;SDS011;13449;49.374;8.584;2023-04-06T12:12:09;7.70;;;4.93;;
24485;SDS011;13449;49.374;8.584;2023-04-06T12:14:35;7.82;;;5.30;;
24485;SDS011;13449;49.374;8.584;2023-04-06T12:17:04;14.63;;;5.40;;
24485;SDS011;13449;49.374;8.584;2023-04-06T12:19:31;7.95;;;4.75;;
24485;SDS011;13449;49.374;8.584;2023-04-06T12:21:58;10.10;;;4.57;;
24485;SDS011;13449;49.374;8.584;2023-04-06T12:24:24;7.95;;;5.68;;
24485;SDS011;13449;49.374;8.584;2023-04-06T12:26:51;10.18;;;5.93;;
24485;SDS011;13449;49.374;8.584;2023-04-06T12:29:34;9.20;;;5.38;;
24485;SDS011;13449;49.374;8.584;2023-04-06T12:32:01;10.25;;;4.97;;
24485;SDS011;13449;49.374;8.584;2023-04-06T12:34:27;11.73;;;5.47;;
24485;SDS011;13449;49.374;8.584;2023-04-06T12:36:54;7.82;;;5.53;;
24485;SDS011;13449;49.374;8.584;2023-04-06T12:39:21;11.57;;;6.72;;
24485;SDS011;13449;49.374;8.584;2023-04-06T12:41:48;9.38;;;5.28;;
24485;SDS011;13449;49.374;8.584;2023-04-06T12:44:18;11.38;;;7.22;;
24485;SDS011;13449;49.374;8.584;2023-04-06T12:46:44;10.98;;;6.70;;
24485;SDS011;13449;49.374;8.584;2023-04-06T12:49:14;12.23;;;6.82;;
24485;SDS011;13449;49.374;8.584;2023-04-06T12:51:42;12.02;;;6.03;;
24485;SDS011;13449;49.374;8.584;2023-04-06T12:54:09;6.60;;;4.80;;
24485;SDS011;13449;49.374;8.584;2023-04-06T12:56:37;13.15;;;5.85;;
24485;SDS011;13449;49.374;8.584;2023-04-06T12:59:03;10.20;;;6.28;;
24485;SDS011;13449;49.374;8.584;2023-04-06T13:01:30;11.77;;;6.32;;
24485;SDS011;13449;49.374;8.584;2023-04-06T13:03:57;8.52;;;5.63;;
24485;SDS011;13449;49.374;8.584;2023-04-06T13:06:25;17.77;;;5.75;;
24485;SDS011;13449;49.374;8.584;2023-04-06T13:08:54;8.25;;;5.50;;
24485;SDS011;13449;49.374;8.584;2023-04-06T13:11:25;14.02;;;6.53;;
24485;SDS011;13449;49.374;8.584;2023-04-06T13:13:55;12.15;;;5.10;;
24485;SDS011;13449;49.374;8.584;2023-04-06T13:16:21;9.70;;;5.32;;
24485;SDS011;13449;49.374;8.584;2023-04-06T13:18:53;8.40;;;5.43;;
24485;SDS011;13449;49.374;8.584;2023-04-06T13:21:19;7.15;;;4.78;;
24485;SDS011;13449;49.374;8.584;2023-04-06T13:23:47;8.38;;;5.50;;
24485;SDS011;13449;49.374;8.584;2023-04-06T13:26:13;7.63;;;5.18;;
24485;SDS011;13449;49.374;8.584;2023-04-06T13:28:45;10.27;;;5.45;;
24485;SDS011;13449;49.374;8.584;2023-04-06T13:31:13;10.50;;;5.63;;
24485;SDS011;13449;49.374;8.584;2023-04-06T13:33:40;11.10;;;5.53;;
24485;SDS011;13449;49.374;8.584;2023-04-06T13:36:07;9.68;;;5.68;;
24485;SDS011;13449;49.374;8.584;2023-04-06T13:38:34;7.20;;;5.47;;
24485;SDS011;13449;49.374;8.584;2023-04-06T13:41:00;9.00;;;5.10;;
24485;SDS011;13449;49.374;8.584;2023-04-06T13:43:27;10.15;;;5.28;;
24485;SDS011;13449;49.374;8.584;2023-04-06T13:45:54;11.73;;;5.53;;
24485;SDS011;13449;49.374;8.584;2023-04-06T13:48:24;12.82;;;5.00;;
24485;SDS011;13449;49.374;8.584;2023-04-06T13:50:52;10.02;;;5.03;;
24485;SDS011;13449;49.374;8.584;2023-04-06T13:53:18;7.85;;;4.40;;
24485;SDS011;13449;49.374;8.584;2023-04-06T13:55:51;7.82;;;4.57;;
24485;SDS011;13449;49.374;8.584;2023-04-06T13:58:18;8.80;;;5.07;;
24485;SDS011;13449;49.374;8.584;2023-04-06T14:00:45;7.63;;;5.00;;
24485;SDS011;13449;49.374;8.584;2023-04-06T14:03:12;11.65;;;5.50;;
24485;SDS011;13449;49.374;8.584;2023-04-06T14:05:41;8.32;;;4.78;;
24485;SDS011;13449;49.374;8.584;2023-04-06T14:08:08;10.05;;;5.15;;
24485;SDS011;13449;49.374;8.584;2023-04-06T14:10:38;10.10;;;5.25;;
24485;SDS011;13449;49.374;8.584;2023-04-06T14:13:06;9.93;;;5.28;;
24485;SDS011;13449;49.374;8.584;2023-04-06T14:15:36;12.02;;;5.18;;
24485;SDS011;13449;49.374;8.584;2023-04-06T14:18:05;7.40;;;4.50;;
24485;SDS011;13449;49.374;8.584;2023-04-06T14:20:34;10.07;;;5.43;;
24485;SDS011;13449;49.374;8.584;2023-04-06T14:23:03;10.63;;;5.70;;
24485;SDS011;13449;49.374;8.584;2023-04-06T14:25:29;9.32;;;5.80;;
24485;SDS011;13449;49.374;8.584;2023-04-06T14:27:57;11.50;;;5.88;;
24485;SDS011;13449;49.374;8.584;2023-04-06T14:30:24;9.20;;;5.95;;
24485;SDS011;13449;49.374;8.584;2023-04-06T14:32:51;11.10;;;6.78;;
24485;SDS011;13449;49.374;8.584;2023-04-06T14:35:18;8.77;;;5.32;;
24485;SDS011;13449;49.374;8.584;2023-04-06T14:37:47;13.80;;;6.40;;
24485;SDS011;13449;49.374;8.584;2023-04-06T14:40:13;11.40;;;5.72;;
24485;SDS011;13449;49.374;8.584;2023-04-06T14:42:39;8.45;;;5.50;;
24485;SDS011;13449;49.374;8.584;2023-04-06T14:45:06;11.98;;;6.28;;
24485;SDS011;13449;49.374;8.584;2023-04-06T14:47:33;10.60;;;6.03;;
24485;SDS011;13449;49.374;8.584;2023-04-06T14:50:00;8.63;;;5.20;;
24485;SDS011;13449;49.374;8.584;2023-04-06T14:52:30;14.77;;;6.20;;
24485;SDS011;13449;49.374;8.584;2023-04-06T14:54:58;13.02;;;5.43;;
24485;SDS011;13449;49.374;8.584;2023-04-06T14:57:24;9.43;;;5.93;;
24485;SDS011;13449;49.374;8.584;2023-04-06T14:59:52;10.75;;;5.40;;
24485;SDS011;13449;49.374;8.584;2023-04-06T15:02:22;18.13;;;5.40;;
24485;SDS011;13449;49.374;8.584;2023-04-06T15:04:49;8.00;;;4.40;;
24485;SDS011;13449;49.374;8.584;2023-04-06T15:07:20;7.85;;;4.15;;
24485;SDS011;13449;49.374;8.584;2023-04-06T15:09:46;15.27;;;5.13;;